Lindsay, Nebraska
Current Conditions -  °F | °C
As of 1:15 AM on Saturday 25 Oct 2014 (Local Time) from KBVN Reporting Station
Clear Clear  
Wind Chill: 39°   Ceiling: Unl
Heat Index: 42°   Visibility: 10mi
Dew Point: 38°   Wind: 5mph
Humidity: 87%   Direction: 330°NNW
Pressure: 30.04"   Gusts: NA
Location:  41.7°N, 97.69°W
Report Text: KBVN 250615Z AUTO 33004KT 10SM CLR 06/04 A3004 RMK AO2 T00560036
Loading
Personal Weather Stations






























Interactive Weather Map
Tropical Storm Tracking
New forecast layout! Learn more

10-Day Weather Forecast

Advertisements
Track Severe Weather on mobile